Main page
METAR-TAF:

METAR-TAF

Airports :

Bordeaux, France

Bordeaux–Mérignac Airport

latitude: 44-50N, longitude: 000-42W, elevation: 49 m

Current weather observation

The report was made 20 minutes ago, at 08:30 UTC
Wind 7 kt from the North/Northeast, varying between North and East/Northeast
Temperature 21°C
Humidity 83%
Pressure 1010 hPa
Visibility 10 km or more
Few clouds at a height of 3400 ft
Scattered clouds at a height of 9600 ft
Overcast at a height of 11000 ft

METAR: LFBD 260830Z AUTO 03007KT 010V070 9999 FEW034 SCT096 OVC110 21/18 Q1010 TEMPO 4000 TSRA BKN020CB

Time: 10:50 (08:50 UTC)


TAF: missing

Weather observations and forecasts of more than 4000 airports (METAR and TAF reports).

The available stations are represented by yellow and red dots on the map.

Hover mouse over dot to see the name of the station.

Then click to see weather observations and forecasts.

To change the map : click on the green buttons with a black cross to zoom in, on the green button with a dash to zoom out, or on the green arrows for adjacent maps.


METAR-TAF: